Cetacea — WDG7421 — position and weather

sailwx.info

Track history (hours):
 
Tides and Currents Weather Stations Pressure Air Temp Water Temp Dewpoint Dewpoint Depression Visibility Wind Speed Wind Dir Waves Ship Positions

Cetacea

Owner: Boston Harbor Cruises, Boston, MA. More information available from US FCC via Universal Licensing System and Coast Guard Vessel Documentation Center.

Last reported at 2017-Sep-19 22:54 UTC. Time now 2017-Sep-21 16:12 UTC.
Position N 42°27' W 070°57'.

Length 25 m; draft 2 m.

Type: Passenger vessel. MMSI: 367567110.

Date/timePositionNaut miles runAvg speedWind from/ knotsBaromVisibWave heightAir tempDewpointWater temp
2017-Sep-19 22:54N 42°27' W 070°57'3 8.5
2017-Sep-19 22:31N 42°24' W 070°57'510.4
2017-Sep-19 22:00N 42°22' W 071°03'0 0.0
2017-Sep-19 21:30N 42°22' W 071°03'0 0.0
2017-Sep-19 21:00N 42°22' W 071°03'0 0.5
2017-Sep-19 20:30N 42°22' W 071°03'2 3.5
2017-Sep-19 20:00N 42°21' W 071°01'2 3.8
2017-Sep-19 19:30N 42°22' W 071°03'0 0.0
2017-Sep-19 19:00N 42°22' W 071°03'0 0.0
2017-Sep-19 18:31N 42°22' W 071°03'0 0.0
2017-Sep-19 18:00N 42°22' W 071°03'0 0.6
2017-Sep-19 17:30N 42°22' W 071°03'2 3.5
2017-Sep-19 17:00N 42°21' W 071°01'2 3.6
2017-Sep-19 16:30N 42°22' W 071°03'1 1.6
2017-Sep-19 16:00N 42°22' W 071°02'0 0.0
2017-Sep-19 15:30N 42°22' W 071°02'0 0.0
2017-Sep-19 15:00N 42°22' W 071°02'0 0.0
2017-Sep-19 14:30N 42°22' W 071°02'0 0.0
2017-Sep-19 14:00N 42°22' W 071°02'1 1.3
2017-Sep-19 13:30N 42°22' W 071°03'1 1.1
2017-Sep-19 13:00N 42°22' W 071°03'0 0.0
2017-Sep-19 12:30N 42°22' W 071°03'510.3
2017-Sep-19 12:01N 42°24' W 070°57'3 0.2
2017-Sep-18 22:34N 42°27' W 070°57'227.8
2017-Sep-18 22:31N 42°25' W 070°57'611.3
2017-Sep-18 22:00N 42°22' W 071°03'0 0.2
2017-Sep-18 21:30N 42°22' W 071°03'0 0.8
2017-Sep-18 21:01N 42°22' W 071°02'0 0.7
2017-Sep-18 20:30N 42°22' W 071°02'0 0.0
2017-Sep-18 20:00N 42°22' W 071°02'0 0.0
2017-Sep-18 19:30N 42°22' W 071°02'0 0.0
2017-Sep-18 19:00N 42°22' W 071°02'0 0.0
2017-Sep-18 18:30N 42°22' W 071°02'0 0.0
2017-Sep-18 18:00N 42°22' W 071°02'0 0.0
2017-Sep-18 17:30N 42°22' W 071°02'0 0.0
2017-Sep-18 17:00N 42°22' W 071°02'0 0.0
2017-Sep-18 16:30N 42°22' W 071°02'0 0.0
2017-Sep-18 16:00N 42°22' W 071°02'0 0.0
2017-Sep-18 15:30N 42°22' W 071°02'0 0.0
2017-Sep-18 15:00N 42°22' W 071°02'0 0.0
2017-Sep-18 14:30N 42°22' W 071°02'0 0.0
2017-Sep-18 14:00N 42°22' W 071°02'0 0.0
2017-Sep-18 13:30N 42°22' W 071°02'1 1.6
2017-Sep-18 13:00N 42°22' W 071°03'0 0.0
2017-Sep-18 12:30N 42°22' W 071°03'5 9.9
2017-Sep-18 12:01N 42°23' W 070°57'  
2017-Sep-15 22:37N 42°27' W 070°56'325.8
2017-Sep-15 22:31N 42°24' W 070°57'510.2
2017-Sep-15 22:00N 42°22' W 071°03'0 0.0
2017-Sep-15 21:31N 42°22' W 071°03'0 0.0
2017-Sep-15 21:01N 42°22' W 071°03'1 2.0
2017-Sep-15 20:30N 42°23' W 071°03'0 0.0
2017-Sep-15 20:00N 42°23' W 071°03'0 0.0
2017-Sep-15 19:30N 42°23' W 071°03'0 0.0
2017-Sep-15 19:00N 42°23' W 071°03'0 0.0
2017-Sep-15 18:30N 42°23' W 071°03'0 0.1
2017-Sep-15 18:01N 42°23' W 071°03'0 0.0
2017-Sep-15 17:30N 42°23' W 071°03'0 0.0
2017-Sep-15 16:59N 42°23' W 071°03'0 0.0
2017-Sep-15 16:30N 42°23' W 071°03'0 0.0
2017-Sep-15 16:00N 42°23' W 071°03'0 0.0
2017-Sep-15 15:30N 42°23' W 071°03'0 0.0
2017-Sep-15 15:00N 42°23' W 071°03'0 0.0
2017-Sep-15 14:30N 42°23' W 071°03'0 0.0
2017-Sep-15 14:00N 42°23' W 071°03'0 0.0
2017-Sep-15 13:30N 42°23' W 071°03'1 1.9
2017-Sep-15 13:00N 42°22' W 071°03'0 0.6
2017-Sep-15 12:30N 42°22' W 071°03'510.2
2017-Sep-15 12:00N 42°24' W 070°57'3 0.3
2017-Sep-14 22:42N 42°27' W 070°57'315.6
2017-Sep-14 22:30N 42°24' W 070°57'510.5
2017-Sep-14 22:00N 42°22' W 071°03'0 0.0
2017-Sep-14 21:30N 42°22' W 071°03'0 0.5
2017-Sep-14 21:01N 42°22' W 071°03'4 8.2
2017-Sep-14 20:30N 42°19' W 070°59'4 8.3
2017-Sep-14 19:59N 42°15' W 070°55'816.9
2017-Sep-14 19:31N 42°21' W 071°02'0 0.2
2017-Sep-14 19:01N 42°21' W 071°02'816.1
2017-Sep-14 18:30N 42°15' W 070°55'0 0.8
2017-Sep-14 18:00N 42°16' W 070°55'816.2
2017-Sep-14 17:30N 42°21' W 071°03'0 0.0
2017-Sep-14 17:00N 42°21' W 071°03'0 0.0
2017-Sep-14 16:30N 42°21' W 071°03'0 0.0
2017-Sep-14 16:00N 42°21' W 071°03'0 0.9
2017-Sep-14 15:31N 42°21' W 071°02'812.6
2017-Sep-14 14:52N 42°15' W 070°55'0 1.0
2017-Sep-14 14:30N 42°16' W 070°55'816.4
2017-Sep-14 14:01N 42°21' W 071°03'0 0.5
2017-Sep-14 13:30N 42°22' W 071°03'0 0.0
2017-Sep-14 13:00N 42°22' W 071°03'0 0.0
2017-Sep-14 12:30N 42°22' W 071°03'510.3
2017-Sep-14 12:01N 42°23' W 070°57'4 0.3
2017-Sep-13 22:46N 42°27' W 070°57'310.0
2017-Sep-13 22:30N 42°25' W 070°57'510.7
2017-Sep-13 22:01N 42°22' W 071°03'1 1.6
2017-Sep-13 21:31N 42°22' W 071°02'0 0.0
2017-Sep-13 21:00N 42°22' W 071°02'0 0.0
2017-Sep-13 20:30N 42°22' W 071°02'0 0.0
2017-Sep-13 20:00N 42°22' W 071°02'0 0.0
2017-Sep-13 19:30N 42°22' W 071°02'0 0.0
2017-Sep-13 19:01N 42°22' W 071°02'0 0.0
2017-Sep-13 18:30N 42°22' W 071°02'0 0.0
2017-Sep-13 18:00N 42°22' W 071°02'0 0.0
2017-Sep-13 17:30N 42°22' W 071°02'0 0.0
2017-Sep-13 17:00N 42°22' W 071°02'0 0.0
2017-Sep-13 16:31N 42°22' W 071°02'0 0.0
2017-Sep-13 16:01N 42°22' W 071°02'0 0.0
2017-Sep-13 15:31N 42°22' W 071°02'0 0.0
2017-Sep-13 15:01N 42°22' W 071°02'0 0.0
2017-Sep-13 14:31N 42°22' W 071°02'0 0.0
2017-Sep-13 14:01N 42°22' W 071°02'0 0.0
2017-Sep-13 13:30N 42°22' W 071°02'1 1.6
2017-Sep-13 13:00N 42°22' W 071°03'0 0.0
2017-Sep-13 12:31N 42°22' W 071°03'510.4
2017-Sep-13 12:00N 42°24' W 070°57'3 5.4
2017-Sep-13 11:25N 42°27' W 070°57'0 0.0
2017-Sep-13 10:59N 42°27' W 070°57'0 0.0
2017-Sep-12 22:38N 42°27' W 070°57'322.1
2017-Sep-12 22:30N 42°25' W 070°57'510.8
2017-Sep-12 22:01N 42°22' W 071°03'0 0.0
2017-Sep-12 21:31N 42°22' W 071°03'1 1.9
2017-Sep-12 21:00N 42°23' W 071°03'0 0.0
2017-Sep-12 20:30N 42°23' W 071°03'0 0.0
2017-Sep-12 20:00N 42°23' W 071°03'0 0.0
2017-Sep-12 19:30N 42°23' W 071°03'0 0.0
2017-Sep-12 19:01N 42°23' W 071°03'1 1.9
2017-Sep-12 18:31N 42°22' W 071°03'1 1.5
2017-Sep-12 18:01N 42°22' W 071°03'1 1.9
2017-Sep-12 17:31N 42°21' W 071°03'0 0.7
2017-Sep-12 17:01N 42°22' W 071°03'1 1.6
2017-Sep-12 16:31N 42°22' W 071°02'0 0.0
2017-Sep-12 16:01N 42°22' W 071°02'0 0.0
2017-Sep-12 15:31N 42°22' W 071°02'0 0.0
2017-Sep-12 15:00N 42°22' W 071°02'0 0.0
2017-Sep-12 14:30N 42°22' W 071°02'0 0.0
2017-Sep-12 14:01N 42°22' W 071°02'0 0.0
2017-Sep-12 13:31N 42°22' W 071°02'1 1.3
2017-Sep-12 13:01N 42°22' W 071°03'0 0.3
2017-Sep-12 12:30N 42°22' W 071°03'510.7
2017-Sep-12 12:01N 42°25' W 070°57'3 5.4
2017-Sep-12 11:30N 42°27' W 070°57'0 0.0
2017-Sep-12 10:59N 42°27' W 070°57'0 0.0
2017-Sep-11 22:33N 42°27' W 070°57'121.8
2017-Sep-11 22:30N 42°26' W 070°57'713.5
2017-Sep-11 22:00N 42°22' W 071°03'1 1.6
2017-Sep-11 21:30N 42°22' W 071°02'0 0.0
2017-Sep-11 21:00N 42°22' W 071°02'0 0.0
2017-Sep-11 20:30N 42°22' W 071°02'0 0.0
2017-Sep-11 20:00N 42°22' W 071°02'0 0.0
2017-Sep-11 19:30N 42°22' W 071°02'0 0.0
2017-Sep-11 19:00N 42°22' W 071°02'1 1.6
2017-Sep-11 18:30N 42°22' W 071°03'1 1.7
2017-Sep-11 18:00N 42°21' W 071°02'1 1.4
2017-Sep-11 17:31N 42°22' W 071°03'0 0.3
2017-Sep-11 17:01N 42°22' W 071°03'1 1.6
2017-Sep-11 16:30N 42°22' W 071°02'0 0.0
2017-Sep-11 16:00N 42°22' W 071°02'1 1.6
2017-Sep-11 15:30N 42°21' W 071°03'8 9.7
2017-Sep-11 14:39N 42°15' W 070°55'0 1.5
2017-Sep-11 14:30N 42°15' W 070°55'816.9
2017-Sep-11 14:00N 42°21' W 071°03'1 1.4
2017-Sep-11 13:30N 42°22' W 071°02'1 1.0
2017-Sep-11 13:00N 42°22' W 071°03'0 0.2
2017-Sep-11 12:31N 42°22' W 071°03'510.0
2017-Sep-11 12:01N 42°23' W 070°57'4 0.2
2017-Sep-10 18:09N 42°27' W 070°57'321.3
2017-Sep-10 18:01N 42°24' W 070°57'510.3
2017-Sep-10 17:30N 42°22' W 071°03'816.1
2017-Sep-10 17:01N 42°19' W 070°53'8 7.4
2017-Sep-10 15:58N 42°16' W 070°43'919.3
2017-Sep-10 15:31N 42°19' W 070°54'713.6
2017-Sep-10 15:01N 42°22' W 071°03'7 7.1
2017-Sep-10 13:59N 42°27' W 070°57'  
Track history (hours):
 
Tides and Currents Weather Stations Pressure Air Temp Water Temp Dewpoint Dewpoint Depression Visibility Wind Speed Wind Dir Waves Ship Positions

Cetacea

Owner: Boston Harbor Cruises, Boston, MA. More information available from US FCC via Universal Licensing System and Coast Guard Vessel Documentation Center.

Last reported at 2017-Sep-19 22:54 UTC. Time now 2017-Sep-21 16:12 UTC.
Position N 42°27' W 070°57'.

Length 25 m; draft 2 m.

Type: Passenger vessel. MMSI: 367567110.

Date/timePositionNaut miles runAvg speedWind from/ knotsBaromVisibWave heightAir tempDewpointWater temp
2017-Sep-19 22:54N 42°27' W 070°57'3 8.5
2017-Sep-19 22:31N 42°24' W 070°57'510.4
2017-Sep-19 22:00N 42°22' W 071°03'0 0.0
2017-Sep-19 21:30N 42°22' W 071°03'0 0.0
2017-Sep-19 21:00N 42°22' W 071°03'0 0.5
2017-Sep-19 20:30N 42°22' W 071°03'2 3.5
2017-Sep-19 20:00N 42°21' W 071°01'2 3.8
2017-Sep-19 19:30N 42°22' W 071°03'0 0.0
2017-Sep-19 19:00N 42°22' W 071°03'0 0.0
2017-Sep-19 18:31N 42°22' W 071°03'0 0.0
2017-Sep-19 18:00N 42°22' W 071°03'0 0.6
2017-Sep-19 17:30N 42°22' W 071°03'2 3.5
2017-Sep-19 17:00N 42°21' W 071°01'2 3.6
2017-Sep-19 16:30N 42°22' W 071°03'1 1.6
2017-Sep-19 16:00N 42°22' W 071°02'0 0.0
2017-Sep-19 15:30N 42°22' W 071°02'0 0.0
2017-Sep-19 15:00N 42°22' W 071°02'0 0.0
2017-Sep-19 14:30N 42°22' W 071°02'0 0.0
2017-Sep-19 14:00N 42°22' W 071°02'1 1.3
2017-Sep-19 13:30N 42°22' W 071°03'1 1.1
2017-Sep-19 13:00N 42°22' W 071°03'0 0.0
2017-Sep-19 12:30N 42°22' W 071°03'510.3
2017-Sep-19 12:01N 42°24' W 070°57'3 0.2
2017-Sep-18 22:34N 42°27' W 070°57'227.8
2017-Sep-18 22:31N 42°25' W 070°57'611.3
2017-Sep-18 22:00N 42°22' W 071°03'0 0.2
2017-Sep-18 21:30N 42°22' W 071°03'0 0.8
2017-Sep-18 21:01N 42°22' W 071°02'0 0.7
2017-Sep-18 20:30N 42°22' W 071°02'0 0.0
2017-Sep-18 20:00N 42°22' W 071°02'0 0.0
2017-Sep-18 19:30N 42°22' W 071°02'0 0.0
2017-Sep-18 19:00N 42°22' W 071°02'0 0.0
2017-Sep-18 18:30N 42°22' W 071°02'0 0.0
2017-Sep-18 18:00N 42°22' W 071°02'0 0.0
2017-Sep-18 17:30N 42°22' W 071°02'0 0.0
2017-Sep-18 17:00N 42°22' W 071°02'0 0.0
2017-Sep-18 16:30N 42°22' W 071°02'0 0.0
2017-Sep-18 16:00N 42°22' W 071°02'0 0.0
2017-Sep-18 15:30N 42°22' W 071°02'0 0.0
2017-Sep-18 15:00N 42°22' W 071°02'0 0.0
2017-Sep-18 14:30N 42°22' W 071°02'0 0.0
2017-Sep-18 14:00N 42°22' W 071°02'0 0.0
2017-Sep-18 13:30N 42°22' W 071°02'1 1.6
2017-Sep-18 13:00N 42°22' W 071°03'0 0.0
2017-Sep-18 12:30N 42°22' W 071°03'5 9.9
2017-Sep-18 12:01N 42°23' W 070°57'  
2017-Sep-15 22:37N 42°27' W 070°56'325.8
2017-Sep-15 22:31N 42°24' W 070°57'510.2
2017-Sep-15 22:00N 42°22' W 071°03'0 0.0
2017-Sep-15 21:31N 42°22' W 071°03'0 0.0
2017-Sep-15 21:01N 42°22' W 071°03'1 2.0
2017-Sep-15 20:30N 42°23' W 071°03'0 0.0
2017-Sep-15 20:00N 42°23' W 071°03'0 0.0
2017-Sep-15 19:30N 42°23' W 071°03'0 0.0
2017-Sep-15 19:00N 42°23' W 071°03'0 0.0
2017-Sep-15 18:30N 42°23' W 071°03'0 0.1
2017-Sep-15 18:01N 42°23' W 071°03'0 0.0
2017-Sep-15 17:30N 42°23' W 071°03'0 0.0
2017-Sep-15 16:59N 42°23' W 071°03'0 0.0
2017-Sep-15 16:30N 42°23' W 071°03'0 0.0
2017-Sep-15 16:00N 42°23' W 071°03'0 0.0
2017-Sep-15 15:30N 42°23' W 071°03'0 0.0
2017-Sep-15 15:00N 42°23' W 071°03'0 0.0
2017-Sep-15 14:30N 42°23' W 071°03'0 0.0
2017-Sep-15 14:00N 42°23' W 071°03'0 0.0
2017-Sep-15 13:30N 42°23' W 071°03'1 1.9
2017-Sep-15 13:00N 42°22' W 071°03'0 0.6
2017-Sep-15 12:30N 42°22' W 071°03'510.2
2017-Sep-15 12:00N 42°24' W 070°57'3 0.3
2017-Sep-14 22:42N 42°27' W 070°57'315.6
2017-Sep-14 22:30N 42°24' W 070°57'510.5
2017-Sep-14 22:00N 42°22' W 071°03'0 0.0
2017-Sep-14 21:30N 42°22' W 071°03'0 0.5
2017-Sep-14 21:01N 42°22' W 071°03'4 8.2
2017-Sep-14 20:30N 42°19' W 070°59'4 8.3
2017-Sep-14 19:59N 42°15' W 070°55'816.9
2017-Sep-14 19:31N 42°21' W 071°02'0 0.2
2017-Sep-14 19:01N 42°21' W 071°02'816.1
2017-Sep-14 18:30N 42°15' W 070°55'0 0.8
2017-Sep-14 18:00N 42°16' W 070°55'816.2
2017-Sep-14 17:30N 42°21' W 071°03'0 0.0
2017-Sep-14 17:00N 42°21' W 071°03'0 0.0
2017-Sep-14 16:30N 42°21' W 071°03'0 0.0
2017-Sep-14 16:00N 42°21' W 071°03'0 0.9
2017-Sep-14 15:31N 42°21' W 071°02'812.6
2017-Sep-14 14:52N 42°15' W 070°55'0 1.0
2017-Sep-14 14:30N 42°16' W 070°55'816.4
2017-Sep-14 14:01N 42°21' W 071°03'0 0.5
2017-Sep-14 13:30N 42°22' W 071°03'0 0.0
2017-Sep-14 13:00N 42°22' W 071°03'0 0.0
2017-Sep-14 12:30N 42°22' W 071°03'510.3
2017-Sep-14 12:01N 42°23' W 070°57'4 0.3
2017-Sep-13 22:46N 42°27' W 070°57'310.0
2017-Sep-13 22:30N 42°25' W 070°57'510.7
2017-Sep-13 22:01N 42°22' W 071°03'1 1.6
2017-Sep-13 21:31N 42°22' W 071°02'0 0.0
2017-Sep-13 21:00N 42°22' W 071°02'0 0.0
2017-Sep-13 20:30N 42°22' W 071°02'0 0.0
2017-Sep-13 20:00N 42°22' W 071°02'0 0.0
2017-Sep-13 19:30N 42°22' W 071°02'0 0.0
2017-Sep-13 19:01N 42°22' W 071°02'0 0.0
2017-Sep-13 18:30N 42°22' W 071°02'0 0.0
2017-Sep-13 18:00N 42°22' W 071°02'0 0.0
2017-Sep-13 17:30N 42°22' W 071°02'0 0.0
2017-Sep-13 17:00N 42°22' W 071°02'0 0.0
2017-Sep-13 16:31N 42°22' W 071°02'0 0.0
2017-Sep-13 16:01N 42°22' W 071°02'0 0.0
2017-Sep-13 15:31N 42°22' W 071°02'0 0.0
2017-Sep-13 15:01N 42°22' W 071°02'0 0.0
2017-Sep-13 14:31N 42°22' W 071°02'0 0.0
2017-Sep-13 14:01N 42°22' W 071°02'0 0.0
2017-Sep-13 13:30N 42°22' W 071°02'1 1.6
2017-Sep-13 13:00N 42°22' W 071°03'0 0.0
2017-Sep-13 12:31N 42°22' W 071°03'510.4
2017-Sep-13 12:00N 42°24' W 070°57'3 5.4
2017-Sep-13 11:25N 42°27' W 070°57'0 0.0
2017-Sep-13 10:59N 42°27' W 070°57'0 0.0
2017-Sep-12 22:38N 42°27' W 070°57'322.1
2017-Sep-12 22:30N 42°25' W 070°57'510.8
2017-Sep-12 22:01N 42°22' W 071°03'0 0.0
2017-Sep-12 21:31N 42°22' W 071°03'1 1.9
2017-Sep-12 21:00N 42°23' W 071°03'0 0.0
2017-Sep-12 20:30N 42°23' W 071°03'0 0.0
2017-Sep-12 20:00N 42°23' W 071°03'0 0.0
2017-Sep-12 19:30N 42°23' W 071°03'0 0.0
2017-Sep-12 19:01N 42°23' W 071°03'1 1.9
2017-Sep-12 18:31N 42°22' W 071°03'1 1.5
2017-Sep-12 18:01N 42°22' W 071°03'1 1.9
2017-Sep-12 17:31N 42°21' W 071°03'0 0.7
2017-Sep-12 17:01N 42°22' W 071°03'1 1.6
2017-Sep-12 16:31N 42°22' W 071°02'0 0.0
2017-Sep-12 16:01N 42°22' W 071°02'0 0.0
2017-Sep-12 15:31N 42°22' W 071°02'0 0.0
2017-Sep-12 15:00N 42°22' W 071°02'0 0.0
2017-Sep-12 14:30N 42°22' W 071°02'0 0.0
2017-Sep-12 14:01N 42°22' W 071°02'0 0.0
2017-Sep-12 13:31N 42°22' W 071°02'1 1.3
2017-Sep-12 13:01N 42°22' W 071°03'0 0.3
2017-Sep-12 12:30N 42°22' W 071°03'510.7
2017-Sep-12 12:01N 42°25' W 070°57'3 5.4
2017-Sep-12 11:30N 42°27' W 070°57'0 0.0
2017-Sep-12 10:59N 42°27' W 070°57'0 0.0
2017-Sep-11 22:33N 42°27' W 070°57'121.8
2017-Sep-11 22:30N 42°26' W 070°57'713.5
2017-Sep-11 22:00N 42°22' W 071°03'1 1.6
2017-Sep-11 21:30N 42°22' W 071°02'0 0.0
2017-Sep-11 21:00N 42°22' W 071°02'0 0.0
2017-Sep-11 20:30N 42°22' W 071°02'0 0.0
2017-Sep-11 20:00N 42°22' W 071°02'0 0.0
2017-Sep-11 19:30N 42°22' W 071°02'0 0.0
2017-Sep-11 19:00N 42°22' W 071°02'1 1.6
2017-Sep-11 18:30N 42°22' W 071°03'1 1.7
2017-Sep-11 18:00N 42°21' W 071°02'1 1.4
2017-Sep-11 17:31N 42°22' W 071°03'0 0.3
2017-Sep-11 17:01N 42°22' W 071°03'1 1.6
2017-Sep-11 16:30N 42°22' W 071°02'0 0.0
2017-Sep-11 16:00N 42°22' W 071°02'1 1.6
2017-Sep-11 15:30N 42°21' W 071°03'8 9.7
2017-Sep-11 14:39N 42°15' W 070°55'0 1.5
2017-Sep-11 14:30N 42°15' W 070°55'816.9
2017-Sep-11 14:00N 42°21' W 071°03'1 1.4
2017-Sep-11 13:30N 42°22' W 071°02'1 1.0
2017-Sep-11 13:00N 42°22' W 071°03'0 0.2
2017-Sep-11 12:31N 42°22' W 071°03'510.0
2017-Sep-11 12:01N 42°23' W 070°57'4 0.2
2017-Sep-10 18:09N 42°27' W 070°57'321.3
2017-Sep-10 18:01N 42°24' W 070°57'510.3
2017-Sep-10 17:30N 42°22' W 071°03'816.1
2017-Sep-10 17:01N 42°19' W 070°53'8 7.4
2017-Sep-10 15:58N 42°16' W 070°43'919.3
2017-Sep-10 15:31N 42°19' W 070°54'713.6
2017-Sep-10 15:01N 42°22' W 071°03'7 7.1
2017-Sep-10 13:59N 42°27' W 070°57'  

Dump ship's entire track history